Time;durP1;ratioP1;P1;durP2;ratioP2;P2;SDS_P1;SDS_P2;PMS_P1;PMS_P2;Temp;Humidity;BMP_temperature;BMP_pressure;BME280_temperature;BME280_humidity;BME280_pressure;Samples;Min_cycle;Max_cycle;Signal;HPM_P1;HPM_P2
2022/06/18 00:00:28;;;;;;;5.33;4.93;;;19.80;90.60;;;;;;5074557;28;20455;-82
2022/06/18 00:02:55;;;;;;;5.77;5.27;;;19.80;90.90;;;;;;5074971;28;20453;-82
2022/06/18 00:05:23;;;;;;;5.70;4.90;;;19.60;90.80;;;;;;5073954;28;20448;-82
2022/06/18 00:07:52;;;;;;;4.97;4.40;;;19.60;91.10;;;;;;5075103;28;21016;-82
2022/06/18 00:10:23;;;;;;;4.70;4.37;;;19.70;91.60;;;;;;5074723;28;20447;-82
2022/06/18 00:15:41;;;;;;;4.83;4.43;;;19.60;91.80;;;;;;5086310;28;20456;-80
2022/06/18 00:18:11;;;;;;;5.47;5.10;;;19.60;91.90;;;;;;5087033;28;20463;-80
2022/06/18 00:20:39;;;;;;;5.00;4.60;;;19.60;91.70;;;;;;5081164;28;20479;-82
2022/06/18 00:23:11;;;;;;;4.60;4.30;;;19.60;92.00;;;;;;5074758;28;20452;-82
2022/06/18 00:25:40;;;;;;;5.73;5.23;;;19.50;92.00;;;;;;5074757;28;20479;-82
2022/06/18 00:28:12;;;;;;;5.40;4.90;;;19.40;92.10;;;;;;5074280;28;20486;-82
2022/06/18 00:30:41;;;;;;;4.33;4.03;;;19.60;92.70;;;;;;5073881;28;20551;-82
2022/06/18 00:33:09;;;;;;;4.77;4.37;;;19.50;92.50;;;;;;5074423;28;20910;-82
2022/06/18 00:35:36;;;;;;;6.27;5.70;;;19.70;92.60;;;;;;5074300;28;20458;-82
2022/06/18 00:38:06;;;;;;;5.00;4.60;;;19.30;92.40;;;;;;5073951;28;20526;-81
2022/06/18 00:40:36;;;;;;;4.67;4.27;;;19.30;92.40;;;;;;5074284;28;20447;-82
2022/06/18 00:43:06;;;;;;;4.40;4.10;;;19.30;92.40;;;;;;5075754;28;20452;-81
2022/06/18 00:45:33;;;;;;;5.10;4.73;;;19.30;92.80;;;;;;5080068;28;20454;-81
2022/06/18 00:48:07;;;;;;;5.20;4.80;;;19.30;92.80;;;;;;5080622;28;20472;-82
2022/06/18 00:50:39;;;;;;;5.90;5.37;;;19.30;93.00;;;;;;5079285;28;20858;-83
2022/06/18 00:53:11;;;;;;;4.97;4.57;;;19.20;93.50;;;;;;5079663;28;20476;-82
2022/06/18 00:55:42;;;;;;;4.73;4.43;;;19.20;93.70;;;;;;5079478;28;20484;-83
2022/06/18 00:58:15;;;;;;;5.43;5.03;;;19.20;93.90;;;;;;5080517;28;20474;-82
2022/06/18 01:00:44;;;;;;;5.37;4.57;;;19.10;94.30;;;;;;5079584;28;20458;-82
2022/06/18 01:03:26;;;;;;;4.40;4.10;;;19.10;94.70;;;;;;5079361;28;20439;-82
2022/06/18 01:05:55;;;;;;;5.37;4.83;;;19.10;94.60;;;;;;5080322;28;20458;-82
2022/06/18 01:08:25;;;;;;;4.73;4.33;;;19.10;94.40;;;;;;5078968;28;20481;-83
2022/06/18 01:10:56;;;;;;;5.57;4.00;;;19.00;94.20;;;;;;5070218;28;20459;-82
2022/06/18 01:13:26;;;;;;;5.13;4.73;;;19.10;93.80;;;;;;5079742;28;20480;-83
2022/06/18 01:15:55;;;;;;;5.50;5.00;;;19.10;93.80;;;;;;5081171;28;20465;-82
2022/06/18 01:18:24;;;;;;;4.90;4.60;;;19.10;93.90;;;;;;5083656;28;20474;-83
2022/06/18 01:20:54;;;;;;;4.93;3.97;;;19.10;93.60;;;;;;5083073;28;20466;-83
2022/06/18 01:23:30;;;;;;;5.43;3.80;;;19.00;93.50;;;;;;5084099;28;20439;-83
2022/06/18 01:25:58;;;;;;;3.97;3.73;;;18.90;93.10;;;;;;5083291;28;20451;-82
2022/06/18 01:28:25;;;;;;;5.57;5.13;;;19.00;92.60;;;;;;5083168;28;20504;-82
2022/06/18 01:30:52;;;;;;;5.03;4.73;;;19.00;92.60;;;;;;5083128;28;20451;-82
2022/06/18 01:33:19;;;;;;;7.80;5.00;;;19.20;92.80;;;;;;5083673;28;20485;-83
2022/06/18 01:35:51;;;;;;;4.90;4.50;;;18.90;92.50;;;;;;5082822;28;20458;-83
2022/06/18 01:38:18;;;;;;;4.20;3.90;;;18.90;92.40;;;;;;5083484;28;20470;-83
2022/06/18 01:40:52;;;;;;;4.30;3.90;;;18.90;92.70;;;;;;5083817;28;20451;-82
2022/06/18 01:43:21;;;;;;;5.10;4.13;;;18.90;92.90;;;;;;5084095;28;20455;-82
2022/06/18 01:45:54;;;;;;;4.17;3.77;;;18.90;93.10;;;;;;5082994;28;20459;-83
2022/06/18 01:48:24;;;;;;;4.33;4.03;;;18.90;93.20;;;;;;5082908;28;20475;-82
2022/06/18 01:50:57;;;;;;;4.30;4.00;;;18.80;93.00;;;;;;5083613;28;20450;-83
2022/06/18 01:53:27;;;;;;;3.90;3.67;;;18.90;93.00;;;;;;5083287;28;20471;-83
2022/06/18 01:55:58;;;;;;;5.30;4.23;;;18.80;92.80;;;;;;5083541;28;20455;-83
2022/06/18 01:58:32;;;;;;;3.80;3.60;;;18.80;92.90;;;;;;5083472;28;20466;-82
2022/06/18 02:01:02;;;;;;;5.17;4.70;;;18.80;92.80;;;;;;5083261;28;20572;-82
2022/06/18 02:03:29;;;;;;;4.70;4.30;;;18.70;93.10;;;;;;5063353;28;20448;-82
2022/06/18 02:05:56;;;;;;;4.27;3.90;;;18.70;93.30;;;;;;5079147;28;20455;-82
2022/06/18 02:08:23;;;;;;;3.60;3.40;;;18.70;93.50;;;;;;5082883;28;20837;-83
2022/06/18 02:10:53;;;;;;;4.90;4.50;;;18.70;93.60;;;;;;5082640;28;20466;-82
2022/06/18 02:13:24;;;;;;;6.43;4.40;;;18.60;93.50;;;;;;5082066;28;21014;-82
2022/06/18 02:15:53;;;;;;;4.90;4.50;;;18.60;93.90;;;;;;5082843;28;20805;-82
2022/06/18 02:18:21;;;;;;;4.23;3.93;;;18.50;94.20;;;;;;5082327;28;20536;-82
2022/06/18 02:20:52;;;;;;;4.53;4.17;;;18.50;94.20;;;;;;5082591;28;20458;-82
2022/06/18 02:23:20;;;;;;;4.90;4.50;;;18.50;94.20;;;;;;5082757;28;20450;-82
2022/06/18 02:25:47;;;;;;;4.43;4.03;;;18.60;94.40;;;;;;5082687;28;20811;-83
2022/06/18 02:28:20;;;;;;;4.47;4.17;;;18.60;94.90;;;;;;5082043;28;20479;-82
2022/06/18 02:30:48;;;;;;;5.47;5.17;;;18.40;95.00;;;;;;5082791;28;20438;-83
2022/06/18 02:33:32;;;;;;;4.90;4.23;;;18.50;94.70;;;;;;5083241;28;20486;-82
2022/06/18 02:36:02;;;;;;;3.87;3.67;;;18.40;94.10;;;;;;5082809;28;20446;-82
2022/06/18 02:38:31;;;;;;;5.70;4.60;;;18.40;94.00;;;;;;5081617;28;20467;-82
2022/06/18 02:40:58;;;;;;;3.93;3.70;;;18.40;94.40;;;;;;5082417;28;20455;-82
2022/06/18 02:43:25;;;;;;;4.77;4.33;;;18.40;93.90;;;;;;5081083;28;20454;-82
2022/06/18 02:45:55;;;;;;;4.23;3.97;;;18.40;93.80;;;;;;5082321;28;20495;-83
2022/06/18 02:48:29;;;;;;;3.93;3.67;;;18.40;93.90;;;;;;5082000;28;20474;-83
2022/06/18 02:50:58;;;;;;;4.00;3.70;;;18.40;94.00;;;;;;5081859;28;20454;-83
2022/06/18 02:53:26;;;;;;;4.53;3.83;;;18.40;94.00;;;;;;5083032;28;20486;-83
2022/06/18 02:55:55;;;;;;;4.57;4.17;;;18.40;93.80;;;;;;5082493;28;20964;-82
2022/06/18 02:58:25;;;;;;;4.47;4.07;;;18.30;93.60;;;;;;5082825;28;21006;-83
2022/06/18 03:00:54;;;;;;;5.27;4.90;;;18.40;93.70;;;;;;5081798;28;20471;-83
2022/06/18 03:03:25;;;;;;;5.23;4.70;;;18.30;93.80;;;;;;5082552;28;20456;-83
2022/06/18 03:05:53;;;;;;;3.93;3.60;;;18.40;93.90;;;;;;5083364;28;20455;-83
2022/06/18 03:08:20;;;;;;;4.57;3.80;;;18.30;93.70;;;;;;5082291;28;20471;-83
2022/06/18 03:13:31;;;;;;;4.37;4.07;;;18.40;93.30;;;;;;5081440;28;20539;-82
2022/06/18 03:15:59;;;;;;;6.00;5.50;;;18.30;93.40;;;;;;5082487;28;20466;-83
2022/06/18 03:18:30;;;;;;;3.80;3.60;;;18.30;93.20;;;;;;5081811;28;20474;-83
2022/06/18 03:21:04;;;;;;;4.03;3.80;;;18.20;93.00;;;;;;5082142;28;20451;-81
2022/06/18 03:23:32;;;;;;;5.37;4.83;;;18.30;92.70;;;;;;5062791;28;20482;-83
2022/06/18 03:25:59;;;;;;;4.80;4.40;;;18.30;92.70;;;;;;5077234;28;20523;-83
2022/06/18 03:28:27;;;;;;;4.10;3.87;;;18.30;92.60;;;;;;5079137;28;20479;-82
2022/06/18 03:30:55;;;;;;;4.83;4.53;;;18.20;92.40;;;;;;5076493;28;20450;-82
2022/06/18 03:33:22;;;;;;;3.87;3.57;;;18.20;92.40;;;;;;5076511;28;20483;-82
2022/06/18 03:35:52;;;;;;;4.67;4.27;;;18.20;92.50;;;;;;5076792;28;20970;-82
2022/06/18 03:38:20;;;;;;;5.00;4.60;;;18.20;92.30;;;;;;5076652;28;20547;-82
2022/06/18 03:40:51;;;;;;;4.43;4.23;;;18.20;92.70;;;;;;5077020;28;20435;-82
2022/06/18 03:43:19;;;;;;;4.07;3.87;;;18.20;92.70;;;;;;5077298;28;20545;-82
2022/06/18 03:45:48;;;;;;;4.53;4.13;;;18.40;92.50;;;;;;5076076;28;20448;-82
2022/06/18 03:48:20;;;;;;;4.20;3.87;;;18.30;92.60;;;;;;5076524;28;20494;-82
2022/06/18 03:50:47;;;;;;;4.57;4.13;;;18.20;92.50;;;;;;5076246;28;20466;-82
2022/06/18 03:53:15;;;;;;;3.70;3.40;;;18.60;92.80;;;;;;5076914;28;20459;-82
2022/06/18 03:55:41;;;;;;;5.93;4.27;;;18.30;92.60;;;;;;5076891;28;20537;-80
2022/06/18 03:58:08;;;;;;;4.10;3.90;;;18.30;92.30;;;;;;5076935;28;20502;-84
2022/06/18 04:00:36;;;;;;;5.00;3.40;;;18.40;92.40;;;;;;5077543;28;20478;-83
2022/06/18 04:03:04;;;;;;;4.83;4.40;;;18.40;92.20;;;;;;5074851;28;20448;-83
2022/06/18 04:05:31;;;;;;;4.00;3.80;;;18.40;92.20;;;;;;5083698;28;20442;-83
2022/06/18 04:07:58;;;;;;;4.20;3.90;;;18.50;92.10;;;;;;5083415;28;20475;-82
2022/06/18 04:10:26;;;;;;;5.83;3.80;;;18.60;92.00;;;;;;5083501;28;20459;-83
2022/06/18 04:12:54;;;;;;;4.77;4.47;;;18.60;92.30;;;;;;5083534;28;20455;-83
2022/06/18 04:15:21;;;;;;;3.90;3.60;;;18.60;92.40;;;;;;5083276;28;20544;-82
2022/06/18 04:17:48;;;;;;;4.23;3.90;;;18.70;92.30;;;;;;5083278;28;20467;-83
2022/06/18 04:20:21;;;;;;;4.40;4.10;;;18.70;92.10;;;;;;5084045;28;20451;-83
2022/06/18 04:22:48;;;;;;;5.03;4.73;;;18.70;92.30;;;;;;5083462;28;20448;-84
2022/06/18 04:25:14;;;;;;;4.30;4.00;;;18.80;92.40;;;;;;5084567;28;20451;-83
2022/06/18 04:27:44;;;;;;;4.40;4.13;;;18.80;92.30;;;;;;5082814;28;20474;-82
2022/06/18 04:30:13;;;;;;;3.63;3.43;;;18.90;92.50;;;;;;5083356;28;20454;-82
2022/06/18 04:32:40;;;;;;;4.40;4.03;;;18.90;92.20;;;;;;5083822;28;20469;-83
2022/06/18 04:35:09;;;;;;;4.07;3.77;;;19.00;92.20;;;;;;5083601;28;20490;-83
2022/06/18 04:37:36;;;;;;;3.97;3.70;;;19.10;92.40;;;;;;5083031;28;20470;-83
2022/06/18 04:40:04;;;;;;;4.37;4.07;;;19.10;92.20;;;;;;5083804;28;20455;-84
2022/06/18 04:42:31;;;;;;;4.37;4.03;;;19.20;92.10;;;;;;5083928;28;20448;-84
2022/06/18 04:44:59;;;;;;;4.10;3.80;;;19.20;92.10;;;;;;5090292;28;20521;-82
2022/06/18 04:47:26;;;;;;;4.90;4.37;;;19.30;92.20;;;;;;5095214;28;20455;-82
2022/06/18 04:49:53;;;;;;;4.70;4.33;;;19.30;92.10;;;;;;5095629;28;20448;-82
2022/06/18 04:52:20;;;;;;;4.47;4.13;;;19.40;92.00;;;;;;5089168;28;20561;-83
2022/06/18 04:54:47;;;;;;;3.93;3.73;;;19.40;92.00;;;;;;5083431;28;20487;-84
2022/06/18 04:57:14;;;;;;;7.17;4.20;;;19.50;91.70;;;;;;5083376;28;20451;-83
2022/06/18 04:59:41;;;;;;;4.30;4.00;;;19.50;91.60;;;;;;5083655;28;20822;-83
2022/06/18 05:02:18;;;;;;;4.63;4.33;;;19.60;91.70;;;;;;5082763;28;20474;-83
2022/06/18 05:04:45;;;;;;;4.80;4.47;;;19.60;91.60;;;;;;5083547;28;20450;-83
2022/06/18 05:07:12;;;;;;;4.47;4.07;;;19.70;91.50;;;;;;5083192;28;20460;-83
2022/06/18 05:09:39;;;;;;;4.90;4.50;;;19.70;91.20;;;;;;5084239;28;20803;-83
2022/06/18 05:12:07;;;;;;;6.80;4.10;;;19.80;91.10;;;;;;5082779;28;20450;-83
2022/06/18 05:14:34;;;;;;;4.33;4.13;;;19.80;91.00;;;;;;5083061;28;20498;-84
2022/06/18 05:17:02;;;;;;;5.03;4.70;;;19.90;91.00;;;;;;5082873;28;20475;-84
2022/06/18 05:19:33;;;;;;;4.50;4.10;;;20.00;91.20;;;;;;5082518;28;20470;-84
2022/06/18 05:22:01;;;;;;;4.83;4.43;;;20.10;91.60;;;;;;5083266;28;20451;-84
2022/06/18 05:24:28;;;;;;;4.20;3.80;;;20.10;91.90;;;;;;5082607;28;20436;-83
2022/06/18 05:26:59;;;;;;;4.10;3.80;;;20.20;91.80;;;;;;5083215;28;20461;-83
2022/06/18 05:29:26;;;;;;;4.57;3.97;;;20.20;91.80;;;;;;5080513;28;20463;-84
2022/06/18 05:31:53;;;;;;;4.67;4.27;;;20.30;91.70;;;;;;5081633;28;20452;-83
2022/06/18 05:34:20;;;;;;;4.87;4.37;;;20.40;91.80;;;;;;5082429;28;20488;-84
2022/06/18 05:36:48;;;;;;;5.77;4.30;;;20.50;91.80;;;;;;5079962;28;20457;-84
2022/06/18 05:39:16;;;;;;;4.40;4.10;;;20.50;92.20;;;;;;5077629;28;20487;-83
2022/06/18 05:41:43;;;;;;;4.57;4.13;;;20.60;92.50;;;;;;5076800;28;20456;-83
2022/06/18 05:44:10;;;;;;;4.83;4.33;;;20.70;92.60;;;;;;5077035;28;20452;-84
2022/06/18 05:46:37;;;;;;;4.97;4.00;;;20.70;92.60;;;;;;5076476;28;20447;-84
2022/06/18 05:49:04;;;;;;;5.30;4.80;;;20.80;92.50;;;;;;5076663;28;20837;-84
2022/06/18 05:51:31;;;;;;;5.33;4.83;;;20.80;92.50;;;;;;5076785;28;20442;-84
2022/06/18 05:53:59;;;;;;;4.33;3.93;;;20.90;92.20;;;;;;5076906;28;20450;-83
2022/06/18 05:56:26;;;;;;;4.47;4.13;;;20.90;91.70;;;;;;5076319;28;20453;-84
2022/06/18 05:58:52;;;;;;;5.70;5.20;;;21.00;91.60;;;;;;5076769;28;20478;-84
2022/06/18 06:01:19;;;;;;;6.13;4.83;;;21.00;91.60;;;;;;5076613;28;20456;-83
2022/06/18 06:03:46;;;;;;;5.30;4.80;;;21.10;91.20;;;;;;5078859;28;20454;-85
2022/06/18 06:06:13;;;;;;;5.30;4.97;;;21.20;91.20;;;;;;5080678;28;20446;-84
2022/06/18 06:08:39;;;;;;;6.10;5.13;;;21.30;91.20;;;;;;5080420;28;20478;-84
2022/06/18 06:13:53;;;;;;;5.30;4.80;;;21.50;90.90;;;;;;5080445;28;20849;-83
2022/06/18 06:16:20;;;;;;;10.00;5.40;;;21.60;91.00;;;;;;5080112;28;20462;-84
2022/06/18 06:18:47;;;;;;;5.20;4.90;;;21.60;90.70;;;;;;5080249;28;20492;-84
2022/06/18 06:21:14;;;;;;;10.13;5.30;;;21.70;90.90;;;;;;5080389;28;20464;-83
2022/06/18 06:23:41;;;;;;;6.13;5.53;;;21.70;91.10;;;;;;5080854;28;20950;-84
2022/06/18 06:26:17;;;;;;;9.00;5.13;;;21.80;91.60;;;;;;5080623;28;20536;-84
2022/06/18 06:28:44;;;;;;;5.40;4.70;;;21.90;91.40;;;;;;5080263;28;20482;-84
2022/06/18 06:31:12;;;;;;;5.73;5.17;;;22.00;91.80;;;;;;5080110;28;20465;-84
2022/06/18 06:33:39;;;;;;;5.97;5.33;;;22.10;92.00;;;;;;5080734;28;20457;-84
2022/06/18 06:36:07;;;;;;;5.50;5.00;;;22.20;92.20;;;;;;5083103;28;20483;-84
2022/06/18 06:38:37;;;;;;;5.10;4.70;;;22.20;91.70;;;;;;5083893;28;20479;-84
2022/06/18 06:41:06;;;;;;;4.93;4.43;;;22.30;91.80;;;;;;5083648;28;20458;-83
2022/06/18 06:43:34;;;;;;;6.97;4.60;;;22.40;91.20;;;;;;5081873;28;20481;-84
2022/06/18 06:46:01;;;;;;;5.10;4.77;;;22.60;91.10;;;;;;5082601;28;20451;-84
2022/06/18 06:48:27;;;;;;;4.60;4.20;;;22.70;91.30;;;;;;5082155;28;20467;-85
2022/06/18 06:50:54;;;;;;;4.90;4.50;;;22.80;91.30;;;;;;5081506;28;20453;-85
2022/06/18 06:53:21;;;;;;;5.37;5.07;;;22.90;90.50;;;;;;5081612;28;20452;-84
2022/06/18 06:58:34;;;;;;;5.57;5.07;;;23.10;90.00;;;;;;5082005;28;20466;-84
2022/06/18 07:01:02;;;;;;;5.17;4.30;;;23.20;89.30;;;;;;5079855;28;20451;-84
2022/06/18 07:03:32;;;;;;;4.40;4.10;;;23.30;88.10;;;;;;5080880;28;20471;-83
2022/06/18 07:06:01;;;;;;;5.60;5.20;;;23.30;87.60;;;;;;5083951;28;20452;-85
2022/06/18 07:08:28;;;;;;;4.47;4.27;;;23.50;88.00;;;;;;5079958;28;20479;-84
2022/06/18 07:10:55;;;;;;;4.53;4.23;;;23.60;86.50;;;;;;5080293;28;20448;-84
2022/06/18 07:13:22;;;;;;;4.93;4.53;;;23.70;87.50;;;;;;5080278;28;20455;-84
2022/06/18 07:15:52;;;;;;;5.20;4.60;;;23.90;84.70;;;;;;5079536;28;20483;-84
2022/06/18 07:18:21;;;;;;;5.77;4.90;;;23.90;84.60;;;;;;5081064;28;20493;-85
2022/06/18 07:20:48;;;;;;;4.57;4.20;;;24.10;86.80;;;;;;5079678;28;20456;-84
2022/06/18 07:23:15;;;;;;;5.57;5.07;;;24.20;86.20;;;;;;5080554;28;20460;-84
2022/06/18 07:25:42;;;;;;;5.47;4.97;;;24.30;86.40;;;;;;5081091;28;20446;-84
2022/06/18 07:28:09;;;;;;;5.60;4.70;;;24.40;82.20;;;;;;5080680;28;20473;-84
2022/06/18 07:30:37;;;;;;;4.27;4.00;;;24.50;79.10;;;;;;5080439;28;20479;-84
2022/06/18 07:33:06;;;;;;;4.50;4.20;;;24.60;76.70;;;;;;5080708;28;20453;-87
2022/06/18 07:35:35;;;;;;;4.20;3.90;;;24.70;77.50;;;;;;5078969;28;20532;-84
2022/06/18 07:38:02;;;;;;;4.73;4.50;;;24.80;81.60;;;;;;5080292;28;20498;-84
2022/06/18 07:40:36;;;;;;;4.87;4.50;;;24.90;78.00;;;;;;5079345;28;20859;-84
2022/06/18 07:43:07;;;;;;;4.40;4.10;;;25.00;80.00;;;;;;5070017;28;20447;-84
2022/06/18 07:45:33;;;;;;;4.90;4.47;;;25.10;80.60;;;;;;5066916;28;20450;-83
2022/06/18 07:48:00;;;;;;;4.80;4.43;;;25.20;79.50;;;;;;5071825;28;20542;-84
2022/06/18 07:50:29;;;;;;;4.20;4.00;;;25.40;79.90;;;;;;5068990;28;20451;-84
2022/06/18 07:52:56;;;;;;;4.67;4.27;;;25.50;81.60;;;;;;5066963;28;20872;-82
2022/06/18 07:55:28;;;;;;;4.80;3.87;;;25.50;77.20;;;;;;5070370;28;20516;-84
2022/06/18 07:57:55;;;;;;;5.27;4.23;;;25.60;78.40;;;;;;5074505;28;20465;-85
2022/06/18 08:00:24;;;;;;;4.40;4.10;;;25.70;77.20;;;;;;5069662;28;20443;-85
2022/06/18 08:02:51;;;;;;;3.90;3.60;;;25.80;76.50;;;;;;5076337;28;20457;-84
2022/06/18 08:05:22;;;;;;;3.90;3.60;;;25.80;70.10;;;;;;5080673;28;20457;-83
2022/06/18 08:07:51;;;;;;;3.70;3.50;;;25.90;69.00;;;;;;5080663;28;20500;-83
2022/06/18 08:10:19;;;;;;;3.50;3.30;;;26.10;67.80;;;;;;5081721;28;20450;-85
2022/06/18 08:12:46;;;;;;;4.57;4.27;;;26.20;66.60;;;;;;5081278;28;20452;-85
2022/06/18 08:15:14;;;;;;;4.00;3.77;;;26.10;68.40;;;;;;5081120;28;20490;-85
2022/06/18 08:17:41;;;;;;;5.07;3.60;;;26.10;68.30;;;;;;5081302;28;20474;-84
2022/06/18 08:20:09;;;;;;;4.90;4.50;;;26.20;68.40;;;;;;5082167;28;20458;-81
2022/06/18 08:22:38;;;;;;;4.93;3.80;;;26.50;69.20;;;;;;5082672;28;20475;-85
2022/06/18 08:25:16;;;;;;;3.50;3.30;;;26.60;71.20;;;;;;5081889;28;20447;-86
2022/06/18 08:27:44;;;;;;;4.07;3.83;;;26.70;69.90;;;;;;5082145;28;20547;-84
2022/06/18 08:30:12;;;;;;;4.10;3.80;;;26.90;70.20;;;;;;5082076;28;20449;-84
2022/06/18 08:32:39;;;;;;;3.80;3.50;;;27.00;68.80;;;;;;5082963;28;20456;-85
2022/06/18 08:35:07;;;;;;;3.10;2.90;;;27.00;69.90;;;;;;5083047;28;20481;-85
2022/06/18 08:37:34;;;;;;;3.63;3.43;;;27.10;68.60;;;;;;5082100;28;20468;-86
2022/06/18 08:40:04;;;;;;;3.83;3.53;;;27.10;60.90;;;;;;5082083;28;20455;-86
2022/06/18 08:42:45;;;;;;;6.10;3.20;;;27.20;59.90;;;;;;5081629;28;20460;-84
2022/06/18 08:45:23;;;;;;;3.43;3.23;;;27.20;61.10;;;;;;5080259;28;20420;-84
2022/06/18 08:48:06;;;;;;;3.73;3.23;;;27.20;61.90;;;;;;5059307;28;20480;-83
2022/06/18 08:50:49;;;;;;;3.33;3.13;;;27.40;64.10;;;;;;5058749;28;20444;-84
2022/06/18 08:53:32;;;;;;;3.77;3.40;;;27.40;64.00;;;;;;5060705;28;20439;-84
2022/06/18 08:56:04;;;;;;;3.97;3.73;;;27.60;62.90;;;;;;5059493;28;20482;-84
2022/06/18 08:58:40;;;;;;;3.97;3.67;;;27.80;60.60;;;;;;5059585;28;20505;-84
2022/06/18 09:01:12;;;;;;;5.00;4.60;;;27.90;61.60;;;;;;5059807;28;20454;-85
2022/06/18 09:03:52;;;;;;;3.77;3.57;;;27.90;60.70;;;;;;5060664;28;20431;-84
2022/06/18 09:06:37;;;;;;;3.90;3.60;;;27.80;58.50;;;;;;5060152;28;20436;-84
2022/06/18 09:09:12;;;;;;;2.70;2.60;;;27.90;59.50;;;;;;5060813;28;20472;-84
2022/06/18 09:12:00;;;;;;;2.80;2.60;;;28.10;56.60;;;;;;5060794;28;20454;-85
2022/06/18 09:14:34;;;;;;;2.67;2.40;;;28.30;53.10;;;;;;5060730;28;20441;-85
2022/06/18 09:17:08;;;;;;;2.93;2.73;;;28.50;52.70;;;;;;5060745;28;20850;-85
2022/06/18 09:19:37;;;;;;;2.50;2.30;;;28.60;52.40;;;;;;5059578;28;20505;-84
2022/06/18 09:22:08;;;;;;;2.50;2.40;;;28.70;50.50;;;;;;5060788;28;20475;-85
2022/06/18 09:24:40;;;;;;;2.83;2.63;;;28.90;50.50;;;;;;5061703;28;20440;-85
2022/06/18 09:27:11;;;;;;;2.60;2.50;;;29.00;50.70;;;;;;5072531;28;20478;-83
2022/06/18 09:29:45;;;;;;;2.37;2.20;;;29.10;48.80;;;;;;5073521;28;20455;-84
2022/06/18 09:32:16;;;;;;;2.40;2.20;;;29.20;48.70;;;;;;5070233;28;20434;-86
2022/06/18 09:34:47;;;;;;;2.60;2.40;;;29.30;48.00;;;;;;5060077;28;20428;-84
2022/06/18 09:37:19;;;;;;;2.23;2.13;;;29.40;48.10;;;;;;5060601;28;20475;-85
2022/06/18 09:39:49;;;;;;;2.63;2.43;;;29.30;48.10;;;;;;5063331;28;20525;-84
2022/06/18 09:42:21;;;;;;;2.40;2.13;;;29.40;47.10;;;;;;5063215;28;20447;-85
2022/06/18 09:44:54;;;;;;;3.23;2.50;;;29.60;47.40;;;;;;5065374;28;20450;-84
2022/06/18 09:47:27;;;;;;;2.63;2.43;;;29.80;50.30;;;;;;5066310;28;20835;-85
2022/06/18 09:49:54;;;;;;;3.17;2.90;;;30.00;49.20;;;;;;5065875;28;20940;-84
2022/06/18 09:52:31;;;;;;;3.50;3.30;;;30.10;48.40;;;;;;5065206;28;20456;-85
2022/06/18 09:55:03;;;;;;;3.20;3.00;;;30.30;51.10;;;;;;5065632;28;20497;-84
2022/06/18 09:57:34;;;;;;;5.50;2.70;;;30.50;51.40;;;;;;5066078;28;20836;-85
2022/06/18 10:00:06;;;;;;;2.90;2.70;;;30.70;48.90;;;;;;5066571;28;20444;-85
2022/06/18 10:02:35;;;;;;;3.70;2.50;;;30.80;48.30;;;;;;5065958;28;20470;-84
2022/06/18 10:07:53;;;;;;;2.40;2.30;;;31.10;44.70;;;;;;5063776;28;20516;-84
2022/06/18 10:10:24;;;;;;;3.03;2.83;;;31.10;43.90;;;;;;5063603;28;20509;-84
2022/06/18 10:12:54;;;;;;;3.13;2.93;;;31.30;47.10;;;;;;5064591;28;20820;-84
2022/06/18 10:15:24;;;;;;;2.97;2.77;;;31.20;44.40;;;;;;5064222;28;20450;-84
2022/06/18 10:18:02;;;;;;;3.00;2.80;;;31.20;44.20;;;;;;5064192;28;20822;-84
2022/06/18 10:20:39;;;;;;;2.63;2.53;;;31.30;45.50;;;;;;5063927;28;20453;-85
2022/06/18 10:23:18;;;;;;;3.80;3.50;;;31.30;44.50;;;;;;5064526;28;20453;-85
2022/06/18 10:25:48;;;;;;;3.23;3.00;;;31.30;46.00;;;;;;5065615;28;20926;-85
2022/06/18 10:28:24;;;;;;;3.80;3.50;;;31.40;44.70;;;;;;5064227;28;20825;-84
2022/06/18 10:31:01;;;;;;;3.93;3.63;;;31.50;44.90;;;;;;5064524;28;20457;-85
2022/06/18 10:33:41;;;;;;;3.13;2.80;;;31.70;44.70;;;;;;5064970;28;20445;-85
2022/06/18 10:36:16;;;;;;;5.07;3.80;;;31.90;45.60;;;;;;5063483;28;20619;-85
2022/06/18 10:38:56;;;;;;;3.10;2.77;;;32.20;45.80;;;;;;5064299;28;20531;-86
2022/06/18 10:41:29;;;;;;;3.00;2.80;;;32.30;43.90;;;;;;5065861;28;20452;-85
2022/06/18 10:44:12;;;;;;;2.20;2.10;;;32.60;44.20;;;;;;5056231;28;20448;-85
2022/06/18 10:46:41;;;;;;;2.20;2.10;;;32.80;41.30;;;;;;5057800;28;20451;-84
2022/06/18 10:49:09;;;;;;;2.23;2.13;;;33.10;41.90;;;;;;5056034;28;20476;-84
2022/06/18 10:51:44;;;;;;;2.60;2.40;;;33.40;42.30;;;;;;5056521;28;20514;-85
2022/06/18 10:54:11;;;;;;;2.10;2.00;;;33.70;37.80;;;;;;5056037;28;20494;-84
2022/06/18 10:56:50;;;;;;;2.50;2.40;;;34.00;38.60;;;;;;5046328;28;20521;-85
2022/06/18 10:59:29;;;;;;;3.07;2.87;;;34.20;41.00;;;;;;5044029;28;20555;-85
2022/06/18 11:02:05;;;;;;;3.10;2.80;;;34.20;40.10;;;;;;5042211;28;20938;-84
2022/06/18 11:04:32;;;;;;;3.83;3.10;;;34.50;39.30;;;;;;5048221;28;20784;-85
2022/06/18 11:07:02;;;;;;;2.50;2.30;;;34.70;40.70;;;;;;5040651;28;20451;-85
2022/06/18 11:09:31;;;;;;;3.23;3.03;;;34.90;39.30;;;;;;5042453;28;20464;-84
2022/06/18 11:12:00;;;;;;;3.03;2.87;;;35.20;39.00;;;;;;5047863;28;20468;-85
2022/06/18 11:14:27;;;;;;;2.30;2.20;;;35.60;37.20;;;;;;5047997;28;20450;-85
2022/06/18 11:16:57;;;;;;;3.60;2.83;;;36.20;38.60;;;;;;5044906;28;20985;-85
2022/06/18 11:19:31;;;;;;;3.07;2.87;;;36.80;38.90;;;;;;5043710;28;20448;-84
2022/06/18 11:22:10;;;;;;;2.40;2.20;;;37.20;34.70;;;;;;5051644;28;20817;-85
2022/06/18 11:24:38;;;;;;;2.43;2.23;;;37.40;40.10;;;;;;5056640;28;20463;-85
2022/06/18 11:27:14;;;;;;;3.07;2.80;;;37.80;42.00;;;;;;5054707;28;20449;-85
2022/06/18 11:29:44;;;;;;;4.77;2.70;;;38.20;40.30;;;;;;5056292;28;20456;-85
2022/06/18 11:32:17;;;;;;;3.53;2.77;;;38.30;38.30;;;;;;5056396;28;20449;-86
2022/06/18 11:34:45;;;;;;;3.23;2.67;;;38.20;37.60;;;;;;5054042;28;20531;-85
2022/06/18 11:37:20;;;;;;;4.60;2.80;;;38.10;38.00;;;;;;5056919;28;20484;-85
2022/06/18 11:39:56;;;;;;;3.67;2.47;;;37.80;38.40;;;;;;5057254;28;20452;-86
2022/06/18 11:42:32;;;;;;;3.30;3.00;;;37.80;37.70;;;;;;5060309;28;20463;-86
2022/06/18 11:45:18;;;;;;;2.63;2.40;;;38.10;38.80;;;;;;5056808;28;20436;-84
2022/06/18 11:47:52;;;;;;;4.03;3.20;;;38.30;37.20;;;;;;5035263;28;20469;-85
2022/06/18 11:50:24;;;;;;;3.10;2.90;;;38.40;38.70;;;;;;5041346;28;20452;-85
2022/06/18 11:52:59;;;;;;;5.80;2.87;;;38.30;37.10;;;;;;5059841;28;20455;-86
2022/06/18 11:55:30;;;;;;;5.20;3.27;;;38.80;38.00;;;;;;5066790;28;20449;-86
2022/06/18 11:58:04;;;;;;;5.43;3.13;;;39.10;37.60;;;;;;5064113;28;20492;-83
2022/06/18 12:00:38;;;;;;;7.90;3.37;;;39.70;38.30;;;;;;5064429;28;20445;-84
2022/06/18 12:03:21;;;;;;;6.63;4.30;;;40.10;36.80;;;;;;5064634;28;20476;-84
2022/06/18 12:05:59;;;;;;;4.30;3.60;;;40.50;36.20;;;;;;5065238;28;20483;-83
2022/06/18 12:08:28;;;;;;;7.93;3.40;;;41.00;36.10;;;;;;5060176;28;20486;-83
2022/06/18 12:11:02;;;;;;;6.47;3.93;;;41.30;35.80;;;;;;5065016;28;20444;-82
2022/06/18 12:13:35;;;;;;;6.33;4.40;;;41.70;36.30;;;;;;5059621;28;20462;-82
2022/06/18 12:16:10;;;;;;;5.30;4.70;;;41.90;37.20;;;;;;5054600;28;20459;-83
2022/06/18 12:18:47;;;;;;;6.00;3.93;;;42.20;35.10;;;;;;5052487;28;20468;-83
2022/06/18 12:21:29;;;;;;;8.90;4.57;;;41.90;34.10;;;;;;5054704;28;20491;-83
2022/06/18 12:24:05;;;;;;;7.60;3.73;;;41.40;32.50;;;;;;5053098;28;20456;-84
2022/06/18 12:26:37;;;;;;;9.10;4.57;;;41.30;34.80;;;;;;5053731;28;20483;-83
2022/06/18 12:29:26;;;;;;;6.50;5.53;;;41.20;35.40;;;;;;5052605;28;20480;-83
2022/06/18 12:31:59;;;;;;;9.27;4.93;;;40.80;34.30;;;;;;5052956;28;20467;-80
2022/06/18 12:34:39;;;;;;;8.27;4.40;;;40.90;33.10;;;;;;5056836;28;20452;-80
2022/06/18 12:37:17;;;;;;;7.53;4.70;;;41.40;32.60;;;;;;5059064;28;20455;-80
2022/06/18 12:39:55;;;;;;;6.50;3.97;;;41.90;32.20;;;;;;5057743;28;20448;-80
2022/06/18 12:42:26;;;;;;;8.87;4.07;;;42.10;34.60;;;;;;5058134;28;20455;-80
2022/06/18 12:44:59;;;;;;;6.70;3.93;;;42.80;36.00;;;;;;5058943;28;20460;-80
2022/06/18 12:47:35;;;;;;;7.87;5.10;;;43.50;35.30;;;;;;5059128;28;20484;-80
2022/06/18 12:50:12;;;;;;;7.63;4.50;;;44.20;34.20;;;;;;5062470;28;20452;-83
2022/06/18 12:52:43;;;;;;;7.20;3.87;;;44.40;32.50;;;;;;5062955;28;20925;-82
2022/06/18 12:55:22;;;;;;;4.63;3.80;;;44.70;32.30;;;;;;5063652;28;20448;-81
2022/06/18 12:57:58;;;;;;;9.93;4.40;;;44.90;33.50;;;;;;5062711;28;20464;-83
2022/06/18 13:00:33;;;;;;;6.60;3.87;;;44.80;31.80;;;;;;5057106;28;20523;-82
2022/06/18 13:03:27;;;;;;;6.03;3.37;;;44.90;33.50;;;;;;5063616;28;20459;-83
2022/06/18 13:06:04;;;;;;;6.10;4.50;;;45.30;32.30;;;;;;5027562;28;20469;-83
2022/06/18 13:08:41;;;;;;;8.93;4.70;;;45.80;35.30;;;;;;5032739;28;20458;-83
2022/06/18 13:11:22;;;;;;;6.13;3.97;;;46.40;32.40;;;;;;5032856;28;20441;-83
2022/06/18 13:14:02;;;;;;;5.53;4.47;;;46.50;30.30;;;;;;5044998;28;20455;-84
2022/06/18 13:16:36;;;;;;;8.53;5.67;;;47.00;32.20;;;;;;5047839;28;20941;-84
2022/06/18 13:19:08;;;;;;;6.97;5.20;;;46.90;30.20;;;;;;5047900;28;20472;-83